sensor_id;sensor_type;location;lat;lon;timestamp;P1;P2;P0
78408;PMS5003;67697;50.750;-3.270;2023-08-06T00:01:49;4;4;
78408;PMS5003;67697;50.750;-3.270;2023-08-06T00:04:15;2;2;
78408;PMS5003;67697;50.750;-3.270;2023-08-06T00:06:40;8;6;
78408;PMS5003;67697;50.750;-3.270;2023-08-06T00:09:06;3;3;
78408;PMS5003;67697;50.750;-3.270;2023-08-06T00:11:31;6;5;
78408;PMS5003;67697;50.750;-3.270;2023-08-06T00:13:57;4;4;
78408;PMS5003;67697;50.750;-3.270;2023-08-06T00:16:23;7;6;
78408;PMS5003;67697;50.750;-3.270;2023-08-06T00:18:48;6;4;
78408;PMS5003;67697;50.750;-3.270;2023-08-06T00:21:14;6;5;
78408;PMS5003;67697;50.750;-3.270;2023-08-06T00:23:40;8;4;
78408;PMS5003;67697;50.750;-3.270;2023-08-06T00:26:05;7;7;
78408;PMS5003;67697;50.750;-3.270;2023-08-06T00:28:31;7;5;
78408;PMS5003;67697;50.750;-3.270;2023-08-06T00:30:56;6;6;
78408;PMS5003;67697;50.750;-3.270;2023-08-06T00:33:22;5;4;
78408;PMS5003;67697;50.750;-3.270;2023-08-06T00:35:47;5;5;
78408;PMS5003;67697;50.750;-3.270;2023-08-06T00:38:13;6;5;
78408;PMS5003;67697;50.750;-3.270;2023-08-06T00:40:38;5;5;
78408;PMS5003;67697;50.750;-3.270;2023-08-06T00:43:04;5;5;
78408;PMS5003;67697;50.750;-3.270;2023-08-06T00:45:30;7;5;
78408;PMS5003;67697;50.750;-3.270;2023-08-06T00:47:55;4;3;
78408;PMS5003;67697;50.750;-3.270;2023-08-06T00:50:21;7;6;
78408;PMS5003;67697;50.750;-3.270;2023-08-06T00:52:47;3;3;
78408;PMS5003;67697;50.750;-3.270;2023-08-06T00:55:12;5;5;
78408;PMS5003;67697;50.750;-3.270;2023-08-06T00:57:37;3;3;
78408;PMS5003;67697;50.750;-3.270;2023-08-06T01:00:04;6;4;
78408;PMS5003;67697;50.750;-3.270;2023-08-06T01:02:29;5;4;
78408;PMS5003;67697;50.750;-3.270;2023-08-06T01:04:54;4;4;
78408;PMS5003;67697;50.750;-3.270;2023-08-06T01:07:24;5;4;
78408;PMS5003;67697;50.750;-3.270;2023-08-06T01:09:48;3;3;
78408;PMS5003;67697;50.750;-3.270;2023-08-06T01:12:14;4;3;
78408;PMS5003;67697;50.750;-3.270;2023-08-06T01:14:40;8;5;
78408;PMS5003;67697;50.750;-3.270;2023-08-06T01:17:02;5;5;
78408;PMS5003;67697;50.750;-3.270;2023-08-06T01:19:28;5;3;
78408;PMS5003;67697;50.750;-3.270;2023-08-06T01:21:53;6;4;
78408;PMS5003;67697;50.750;-3.270;2023-08-06T01:24:20;4;4;
78408;PMS5003;67697;50.750;-3.270;2023-08-06T01:26:45;4;4;
78408;PMS5003;67697;50.750;-3.270;2023-08-06T01:29:13;5;4;
78408;PMS5003;67697;50.750;-3.270;2023-08-06T01:31:37;6;3;
78408;PMS5003;67697;50.750;-3.270;2023-08-06T01:34:02;4;4;
78408;PMS5003;67697;50.750;-3.270;2023-08-06T01:36:27;5;5;
78408;PMS5003;67697;50.750;-3.270;2023-08-06T01:38:53;4;4;
78408;PMS5003;67697;50.750;-3.270;2023-08-06T01:41:18;5;5;
78408;PMS5003;67697;50.750;-3.270;2023-08-06T01:43:44;6;5;
78408;PMS5003;67697;50.750;-3.270;2023-08-06T01:46:09;5;5;
78408;PMS5003;67697;50.750;-3.270;2023-08-06T01:48:35;7;6;
78408;PMS5003;67697;50.750;-3.270;2023-08-06T01:51:01;4;4;
78408;PMS5003;67697;50.750;-3.270;2023-08-06T01:53:26;4;4;
78408;PMS5003;67697;50.750;-3.270;2023-08-06T01:55:52;5;4;
78408;PMS5003;67697;50.750;-3.270;2023-08-06T01:58:17;5;4;
78408;PMS5003;67697;50.750;-3.270;2023-08-06T02:00:43;7;6;
78408;PMS5003;67697;50.750;-3.270;2023-08-06T02:03:09;6;4;
78408;PMS5003;67697;50.750;-3.270;2023-08-06T02:05:34;6;4;
78408;PMS5003;67697;50.750;-3.270;2023-08-06T02:08:00;6;4;
78408;PMS5003;67697;50.750;-3.270;2023-08-06T02:10:25;6;5;
78408;PMS5003;67697;50.750;-3.270;2023-08-06T02:12:51;3;3;
78408;PMS5003;67697;50.750;-3.270;2023-08-06T02:15:17;3;3;
78408;PMS5003;67697;50.750;-3.270;2023-08-06T02:17:42;4;3;
78408;PMS5003;67697;50.750;-3.270;2023-08-06T02:20:08;4;4;
78408;PMS5003;67697;50.750;-3.270;2023-08-06T02:22:34;6;6;
78408;PMS5003;67697;50.750;-3.270;2023-08-06T02:24:59;6;5;
78408;PMS5003;67697;50.750;-3.270;2023-08-06T02:27:25;6;6;
78408;PMS5003;67697;50.750;-3.270;2023-08-06T02:29:50;4;4;
78408;PMS5003;67697;50.750;-3.270;2023-08-06T02:32:16;4;4;
78408;PMS5003;67697;50.750;-3.270;2023-08-06T02:34:42;4;4;
78408;PMS5003;67697;50.750;-3.270;2023-08-06T02:37:07;5;4;
78408;PMS5003;67697;50.750;-3.270;2023-08-06T02:39:33;3;3;
78408;PMS5003;67697;50.750;-3.270;2023-08-06T02:41:58;3;3;
78408;PMS5003;67697;50.750;-3.270;2023-08-06T02:44:26;7;4;
78408;PMS5003;67697;50.750;-3.270;2023-08-06T02:46:50;5;3;
78408;PMS5003;67697;50.750;-3.270;2023-08-06T02:49:15;5;4;
78408;PMS5003;67697;50.750;-3.270;2023-08-06T02:51:41;5;4;
78408;PMS5003;67697;50.750;-3.270;2023-08-06T02:54:06;4;4;
78408;PMS5003;67697;50.750;-3.270;2023-08-06T02:56:32;4;4;
78408;PMS5003;67697;50.750;-3.270;2023-08-06T02:58:58;5;5;
78408;PMS5003;67697;50.750;-3.270;2023-08-06T03:01:23;4;4;
78408;PMS5003;67697;50.750;-3.270;2023-08-06T03:03:49;5;5;
78408;PMS5003;67697;50.750;-3.270;2023-08-06T03:06:14;6;3;
78408;PMS5003;67697;50.750;-3.270;2023-08-06T03:08:40;4;4;
78408;PMS5003;67697;50.750;-3.270;2023-08-06T03:11:05;5;5;
78408;PMS5003;67697;50.750;-3.270;2023-08-06T03:13:31;5;4;
78408;PMS5003;67697;50.750;-3.270;2023-08-06T03:15:57;5;4;
78408;PMS5003;67697;50.750;-3.270;2023-08-06T03:18:22;6;5;
78408;PMS5003;67697;50.750;-3.270;2023-08-06T03:20:48;3;2;
78408;PMS5003;67697;50.750;-3.270;2023-08-06T03:23:14;4;4;
78408;PMS5003;67697;50.750;-3.270;2023-08-06T03:25:39;5;4;
78408;PMS5003;67697;50.750;-3.270;2023-08-06T03:28:05;4;4;
78408;PMS5003;67697;50.750;-3.270;2023-08-06T03:30:31;4;3;
78408;PMS5003;67697;50.750;-3.270;2023-08-06T03:32:56;7;5;
78408;PMS5003;67697;50.750;-3.270;2023-08-06T03:35:22;5;3;
78408;PMS5003;67697;50.750;-3.270;2023-08-06T03:37:48;8;6;
78408;PMS5003;67697;50.750;-3.270;2023-08-06T03:40:13;3;3;
78408;PMS5003;67697;50.750;-3.270;2023-08-06T03:42:39;4;4;
78408;PMS5003;67697;50.750;-3.270;2023-08-06T03:45:05;6;3;
78408;PMS5003;67697;50.750;-3.270;2023-08-06T03:47:30;4;3;
78408;PMS5003;67697;50.750;-3.270;2023-08-06T03:49:56;3;3;
78408;PMS5003;67697;50.750;-3.270;2023-08-06T03:52:21;6;6;
78408;PMS5003;67697;50.750;-3.270;2023-08-06T03:54:47;2;2;
78408;PMS5003;67697;50.750;-3.270;2023-08-06T03:57:12;5;3;
78408;PMS5003;67697;50.750;-3.270;2023-08-06T03:59:38;5;4;
78408;PMS5003;67697;50.750;-3.270;2023-08-06T04:02:04;3;3;
78408;PMS5003;67697;50.750;-3.270;2023-08-06T04:04:29;10;4;
78408;PMS5003;67697;50.750;-3.270;2023-08-06T04:06:55;4;4;
78408;PMS5003;67697;50.750;-3.270;2023-08-06T04:09:21;4;3;
78408;PMS5003;67697;50.750;-3.270;2023-08-06T04:11:46;7;6;
78408;PMS5003;67697;50.750;-3.270;2023-08-06T04:14:12;3;3;
78408;PMS5003;67697;50.750;-3.270;2023-08-06T04:16:38;3;3;
78408;PMS5003;67697;50.750;-3.270;2023-08-06T04:19:03;6;5;
78408;PMS5003;67697;50.750;-3.270;2023-08-06T04:21:29;3;3;
78408;PMS5003;67697;50.750;-3.270;2023-08-06T04:23:55;4;4;
78408;PMS5003;67697;50.750;-3.270;2023-08-06T04:26:20;5;5;
78408;PMS5003;67697;50.750;-3.270;2023-08-06T04:28:47;5;5;
78408;PMS5003;67697;50.750;-3.270;2023-08-06T04:31:11;5;4;
78408;PMS5003;67697;50.750;-3.270;2023-08-06T04:33:37;3;3;
78408;PMS5003;67697;50.750;-3.270;2023-08-06T04:36:02;3;3;
78408;PMS5003;67697;50.750;-3.270;2023-08-06T04:38:28;2;2;
78408;PMS5003;67697;50.750;-3.270;2023-08-06T04:40:53;5;4;
78408;PMS5003;67697;50.750;-3.270;2023-08-06T04:43:19;4;3;
78408;PMS5003;67697;50.750;-3.270;2023-08-06T04:45:46;3;3;
78408;PMS5003;67697;50.750;-3.270;2023-08-06T04:48:11;4;4;
78408;PMS5003;67697;50.750;-3.270;2023-08-06T04:50:36;2;2;
78408;PMS5003;67697;50.750;-3.270;2023-08-06T04:53:02;2;2;
78408;PMS5003;67697;50.750;-3.270;2023-08-06T04:55:27;7;5;
78408;PMS5003;67697;50.750;-3.270;2023-08-06T04:57:53;3;3;
78408;PMS5003;67697;50.750;-3.270;2023-08-06T05:00:18;3;3;
78408;PMS5003;67697;50.750;-3.270;2023-08-06T05:02:44;5;5;
78408;PMS5003;67697;50.750;-3.270;2023-08-06T05:05:10;3;2;
78408;PMS5003;67697;50.750;-3.270;2023-08-06T05:07:35;4;3;
78408;PMS5003;67697;50.750;-3.270;2023-08-06T05:10:01;3;3;
78408;PMS5003;67697;50.750;-3.270;2023-08-06T05:12:26;5;4;
78408;PMS5003;67697;50.750;-3.270;2023-08-06T05:14:52;6;4;
78408;PMS5003;67697;50.750;-3.270;2023-08-06T05:17:18;2;2;
78408;PMS5003;67697;50.750;-3.270;2023-08-06T05:19:43;5;4;
78408;PMS5003;67697;50.750;-3.270;2023-08-06T05:22:09;4;4;
78408;PMS5003;67697;50.750;-3.270;2023-08-06T05:24:35;4;4;
78408;PMS5003;67697;50.750;-3.270;2023-08-06T05:27:00;3;3;
78408;PMS5003;67697;50.750;-3.270;2023-08-06T05:29:26;5;4;
78408;PMS5003;67697;50.750;-3.270;2023-08-06T05:31:51;6;4;
78408;PMS5003;67697;50.750;-3.270;2023-08-06T05:34:17;4;3;
78408;PMS5003;67697;50.750;-3.270;2023-08-06T05:36:43;3;3;
78408;PMS5003;67697;50.750;-3.270;2023-08-06T05:39:08;4;3;
78408;PMS5003;67697;50.750;-3.270;2023-08-06T05:41:34;4;4;
78408;PMS5003;67697;50.750;-3.270;2023-08-06T05:44:00;6;5;
78408;PMS5003;67697;50.750;-3.270;2023-08-06T05:46:26;5;5;
78408;PMS5003;67697;50.750;-3.270;2023-08-06T05:48:51;4;3;
78408;PMS5003;67697;50.750;-3.270;2023-08-06T05:51:17;4;3;
78408;PMS5003;67697;50.750;-3.270;2023-08-06T05:53:42;2;2;
78408;PMS5003;67697;50.750;-3.270;2023-08-06T05:56:08;4;4;
78408;PMS5003;67697;50.750;-3.270;2023-08-06T05:58:34;3;3;
78408;PMS5003;67697;50.750;-3.270;2023-08-06T06:00:59;3;3;
78408;PMS5003;67697;50.750;-3.270;2023-08-06T06:03:25;5;2;
78408;PMS5003;67697;50.750;-3.270;2023-08-06T06:05:50;4;4;
78408;PMS5003;67697;50.750;-3.270;2023-08-06T06:08:16;5;4;
78408;PMS5003;67697;50.750;-3.270;2023-08-06T06:10:42;3;3;
78408;PMS5003;67697;50.750;-3.270;2023-08-06T06:13:07;5;3;
78408;PMS5003;67697;50.750;-3.270;2023-08-06T06:15:33;8;3;
78408;PMS5003;67697;50.750;-3.270;2023-08-06T06:17:59;3;3;
78408;PMS5003;67697;50.750;-3.270;2023-08-06T06:20:24;3;3;
78408;PMS5003;67697;50.750;-3.270;2023-08-06T06:22:50;4;3;
78408;PMS5003;67697;50.750;-3.270;2023-08-06T06:25:16;4;4;
78408;PMS5003;67697;50.750;-3.270;2023-08-06T06:27:41;5;4;
78408;PMS5003;67697;50.750;-3.270;2023-08-06T06:30:07;3;3;
78408;PMS5003;67697;50.750;-3.270;2023-08-06T06:32:32;4;2;
78408;PMS5003;67697;50.750;-3.270;2023-08-06T06:35:03;3;3;
78408;PMS5003;67697;50.750;-3.270;2023-08-06T06:37:23;3;3;
78408;PMS5003;67697;50.750;-3.270;2023-08-06T06:39:49;4;4;
78408;PMS5003;67697;50.750;-3.270;2023-08-06T06:42:14;3;3;
78408;PMS5003;67697;50.750;-3.270;2023-08-06T06:44:40;4;4;
78408;PMS5003;67697;50.750;-3.270;2023-08-06T06:47:06;6;3;
78408;PMS5003;67697;50.750;-3.270;2023-08-06T06:49:32;5;3;
78408;PMS5003;67697;50.750;-3.270;2023-08-06T06:51:57;2;2;
78408;PMS5003;67697;50.750;-3.270;2023-08-06T06:54:23;3;3;
78408;PMS5003;67697;50.750;-3.270;2023-08-06T06:56:48;4;4;
78408;PMS5003;67697;50.750;-3.270;2023-08-06T06:59:14;3;3;
78408;PMS5003;67697;50.750;-3.270;2023-08-06T07:01:39;3;3;
78408;PMS5003;67697;50.750;-3.270;2023-08-06T07:04:05;3;3;
78408;PMS5003;67697;50.750;-3.270;2023-08-06T07:06:31;6;4;
78408;PMS5003;67697;50.750;-3.270;2023-08-06T07:08:56;3;3;
78408;PMS5003;67697;50.750;-3.270;2023-08-06T07:11:22;2;2;
78408;PMS5003;67697;50.750;-3.270;2023-08-06T07:13:49;2;2;
78408;PMS5003;67697;50.750;-3.270;2023-08-06T07:16:13;2;1;
78408;PMS5003;67697;50.750;-3.270;2023-08-06T07:18:39;3;2;
78408;PMS5003;67697;50.750;-3.270;2023-08-06T07:21:04;4;3;
78408;PMS5003;67697;50.750;-3.270;2023-08-06T07:23:30;4;2;
78408;PMS5003;67697;50.750;-3.270;2023-08-06T07:25:56;2;2;
78408;PMS5003;67697;50.750;-3.270;2023-08-06T07:28:21;3;3;
78408;PMS5003;67697;50.750;-3.270;2023-08-06T07:30:47;3;2;
78408;PMS5003;67697;50.750;-3.270;2023-08-06T07:33:12;3;3;
78408;PMS5003;67697;50.750;-3.270;2023-08-06T07:35:38;2;2;
78408;PMS5003;67697;50.750;-3.270;2023-08-06T07:38:04;1;1;
78408;PMS5003;67697;50.750;-3.270;2023-08-06T07:40:29;4;2;
78408;PMS5003;67697;50.750;-3.270;2023-08-06T07:42:55;4;2;
78408;PMS5003;67697;50.750;-3.270;2023-08-06T07:45:20;2;2;
78408;PMS5003;67697;50.750;-3.270;2023-08-06T07:47:51;5;3;
78408;PMS5003;67697;50.750;-3.270;2023-08-06T07:50:12;2;2;
78408;PMS5003;67697;50.750;-3.270;2023-08-06T07:52:37;4;1;
78408;PMS5003;67697;50.750;-3.270;2023-08-06T07:55:03;4;2;
78408;PMS5003;67697;50.750;-3.270;2023-08-06T07:57:28;2;2;
78408;PMS5003;67697;50.750;-3.270;2023-08-06T07:59:54;2;2;
78408;PMS5003;67697;50.750;-3.270;2023-08-06T08:02:19;1;1;
78408;PMS5003;67697;50.750;-3.270;2023-08-06T08:04:45;2;2;
78408;PMS5003;67697;50.750;-3.270;2023-08-06T08:07:11;2;2;
78408;PMS5003;67697;50.750;-3.270;2023-08-06T08:09:36;1;1;
78408;PMS5003;67697;50.750;-3.270;2023-08-06T08:12:03;2;2;
78408;PMS5003;67697;50.750;-3.270;2023-08-06T08:14:27;1;1;
78408;PMS5003;67697;50.750;-3.270;2023-08-06T08:16:53;2;2;
78408;PMS5003;67697;50.750;-3.270;2023-08-06T08:19:18;1;1;
78408;PMS5003;67697;50.750;-3.270;2023-08-06T08:21:44;1;1;
78408;PMS5003;67697;50.750;-3.270;2023-08-06T08:24:10;3;1;
78408;PMS5003;67697;50.750;-3.270;2023-08-06T08:26:35;1;1;
78408;PMS5003;67697;50.750;-3.270;2023-08-06T08:29:01;3;3;
78408;PMS5003;67697;50.750;-3.270;2023-08-06T08:31:26;3;3;
78408;PMS5003;67697;50.750;-3.270;2023-08-06T08:33:52;2;2;
78408;PMS5003;67697;50.750;-3.270;2023-08-06T08:36:18;3;3;
78408;PMS5003;67697;50.750;-3.270;2023-08-06T08:38:43;3;3;
78408;PMS5003;67697;50.750;-3.270;2023-08-06T08:41:09;1;1;
78408;PMS5003;67697;50.750;-3.270;2023-08-06T08:43:34;2;2;
78408;PMS5003;67697;50.750;-3.270;2023-08-06T08:46:00;1;1;
78408;PMS5003;67697;50.750;-3.270;2023-08-06T08:48:26;2;2;
78408;PMS5003;67697;50.750;-3.270;2023-08-06T08:50:51;2;2;
78408;PMS5003;67697;50.750;-3.270;2023-08-06T08:53:17;1;1;
78408;PMS5003;67697;50.750;-3.270;2023-08-06T08:55:42;3;2;
78408;PMS5003;67697;50.750;-3.270;2023-08-06T08:58:07;2;1;
78408;PMS5003;67697;50.750;-3.270;2023-08-06T09:00:33;3;3;
78408;PMS5003;67697;50.750;-3.270;2023-08-06T09:02:59;4;3;
78408;PMS5003;67697;50.750;-3.270;2023-08-06T09:05:24;1;1;
78408;PMS5003;67697;50.750;-3.270;2023-08-06T09:07:50;1;1;
78408;PMS5003;67697;50.750;-3.270;2023-08-06T09:10:16;1;1;
78408;PMS5003;67697;50.750;-3.270;2023-08-06T09:12:41;1;1;
78408;PMS5003;67697;50.750;-3.270;2023-08-06T09:15:07;2;1;
78408;PMS5003;67697;50.750;-3.270;2023-08-06T09:17:32;2;1;
78408;PMS5003;67697;50.750;-3.270;2023-08-06T09:19:57;2;2;
78408;PMS5003;67697;50.750;-3.270;2023-08-06T09:22:23;1;1;
78408;PMS5003;67697;50.750;-3.270;2023-08-06T09:24:49;1;1;
78408;PMS5003;67697;50.750;-3.270;2023-08-06T09:27:14;1;1;
78408;PMS5003;67697;50.750;-3.270;2023-08-06T09:29:40;2;2;
78408;PMS5003;67697;50.750;-3.270;2023-08-06T09:32:05;1;1;
78408;PMS5003;67697;50.750;-3.270;2023-08-06T09:34:31;1;1;
78408;PMS5003;67697;50.750;-3.270;2023-08-06T09:36:56;2;2;
78408;PMS5003;67697;50.750;-3.270;2023-08-06T09:39:26;1;1;
78408;PMS5003;67697;50.750;-3.270;2023-08-06T09:41:47;2;2;
78408;PMS5003;67697;50.750;-3.270;2023-08-06T09:44:15;1;1;
78408;PMS5003;67697;50.750;-3.270;2023-08-06T09:46:38;1;1;
78408;PMS5003;67697;50.750;-3.270;2023-08-06T09:49:04;1;1;
78408;PMS5003;67697;50.750;-3.270;2023-08-06T09:51:29;3;1;
78408;PMS5003;67697;50.750;-3.270;2023-08-06T09:53:55;2;2;
78408;PMS5003;67697;50.750;-3.270;2023-08-06T09:56:20;3;1;
78408;PMS5003;67697;50.750;-3.270;2023-08-06T09:58:47;2;2;
78408;PMS5003;67697;50.750;-3.270;2023-08-06T10:01:12;2;2;
78408;PMS5003;67697;50.750;-3.270;2023-08-06T10:03:37;3;2;
78408;PMS5003;67697;50.750;-3.270;2023-08-06T10:06:03;2;1;
78408;PMS5003;67697;50.750;-3.270;2023-08-06T10:08:28;1;1;
78408;PMS5003;67697;50.750;-3.270;2023-08-06T10:10:54;2;2;
78408;PMS5003;67697;50.750;-3.270;2023-08-06T10:13:19;1;1;
78408;PMS5003;67697;50.750;-3.270;2023-08-06T10:15:45;1;1;
78408;PMS5003;67697;50.750;-3.270;2023-08-06T10:18:10;1;1;
78408;PMS5003;67697;50.750;-3.270;2023-08-06T10:20:36;2;2;
78408;PMS5003;67697;50.750;-3.270;2023-08-06T10:23:02;1;1;
78408;PMS5003;67697;50.750;-3.270;2023-08-06T10:25:30;1;1;
78408;PMS5003;67697;50.750;-3.270;2023-08-06T10:27:53;1;1;
78408;PMS5003;67697;50.750;-3.270;2023-08-06T10:30:22;1;1;
78408;PMS5003;67697;50.750;-3.270;2023-08-06T10:32:47;1;1;
78408;PMS5003;67697;50.750;-3.270;2023-08-06T10:35:09;1;1;
78408;PMS5003;67697;50.750;-3.270;2023-08-06T10:37:35;0;0;
78408;PMS5003;67697;50.750;-3.270;2023-08-06T10:40:00;1;1;
78408;PMS5003;67697;50.750;-3.270;2023-08-06T10:42:27;1;1;
78408;PMS5003;67697;50.750;-3.270;2023-08-06T10:49:42;3;2;
78408;PMS5003;67697;50.750;-3.270;2023-08-06T10:52:08;2;1;
78408;PMS5003;67697;50.750;-3.270;2023-08-06T10:54:33;2;1;
78408;PMS5003;67697;50.750;-3.270;2023-08-06T10:56:59;0;0;
78408;PMS5003;67697;50.750;-3.270;2023-08-06T10:59:24;1;1;
78408;PMS5003;67697;50.750;-3.270;2023-08-06T11:01:50;0;0;
78408;PMS5003;67697;50.750;-3.270;2023-08-06T11:04:15;1;1;
78408;PMS5003;67697;50.750;-3.270;2023-08-06T11:06:42;2;1;
78408;PMS5003;67697;50.750;-3.270;2023-08-06T11:09:06;0;0;
78408;PMS5003;67697;50.750;-3.270;2023-08-06T11:11:32;2;2;
78408;PMS5003;67697;50.750;-3.270;2023-08-06T11:13:57;3;1;
78408;PMS5003;67697;50.750;-3.270;2023-08-06T11:16:23;1;0;
78408;PMS5003;67697;50.750;-3.270;2023-08-06T11:18:48;0;0;
78408;PMS5003;67697;50.750;-3.270;2023-08-06T11:21:14;2;2;
78408;PMS5003;67697;50.750;-3.270;2023-08-06T11:23:40;1;1;
78408;PMS5003;67697;50.750;-3.270;2023-08-06T11:26:05;2;1;
78408;PMS5003;67697;50.750;-3.270;2023-08-06T11:28:31;2;0;
78408;PMS5003;67697;50.750;-3.270;2023-08-06T11:30:56;1;1;
78408;PMS5003;67697;50.750;-3.270;2023-08-06T11:33:22;3;2;
78408;PMS5003;67697;50.750;-3.270;2023-08-06T11:35:47;2;2;
78408;PMS5003;67697;50.750;-3.270;2023-08-06T11:38:13;1;1;
78408;PMS5003;67697;50.750;-3.270;2023-08-06T11:40:39;2;2;
78408;PMS5003;67697;50.750;-3.270;2023-08-06T11:43:05;2;2;
78408;PMS5003;67697;50.750;-3.270;2023-08-06T11:45:29;2;2;
78408;PMS5003;67697;50.750;-3.270;2023-08-06T11:47:55;1;1;
78408;PMS5003;67697;50.750;-3.270;2023-08-06T11:50:22;1;1;
78408;PMS5003;67697;50.750;-3.270;2023-08-06T11:52:46;1;1;
78408;PMS5003;67697;50.750;-3.270;2023-08-06T11:55:12;2;2;
78408;PMS5003;67697;50.750;-3.270;2023-08-06T11:57:38;1;1;
78408;PMS5003;67697;50.750;-3.270;2023-08-06T12:00:02;3;2;
78408;PMS5003;67697;50.750;-3.270;2023-08-06T12:02:32;1;1;
78408;PMS5003;67697;50.750;-3.270;2023-08-06T12:04:57;1;1;
78408;PMS5003;67697;50.750;-3.270;2023-08-06T12:07:19;0;0;
78408;PMS5003;67697;50.750;-3.270;2023-08-06T12:09:45;1;1;
78408;PMS5003;67697;50.750;-3.270;2023-08-06T12:12:10;2;2;
78408;PMS5003;67697;50.750;-3.270;2023-08-06T12:14:36;2;1;
78408;PMS5003;67697;50.750;-3.270;2023-08-06T12:17:01;3;1;
78408;PMS5003;67697;50.750;-3.270;2023-08-06T12:19:27;3;2;
78408;PMS5003;67697;50.750;-3.270;2023-08-06T12:21:52;2;2;
78408;PMS5003;67697;50.750;-3.270;2023-08-06T12:24:18;1;1;
78408;PMS5003;67697;50.750;-3.270;2023-08-06T12:26:43;2;2;
78408;PMS5003;67697;50.750;-3.270;2023-08-06T12:29:09;2;2;
78408;PMS5003;67697;50.750;-3.270;2023-08-06T12:31:34;2;2;
78408;PMS5003;67697;50.750;-3.270;2023-08-06T12:34:00;3;3;
78408;PMS5003;67697;50.750;-3.270;2023-08-06T12:36:25;3;2;
78408;PMS5003;67697;50.750;-3.270;2023-08-06T12:38:51;1;1;
78408;PMS5003;67697;50.750;-3.270;2023-08-06T12:41:16;2;2;
78408;PMS5003;67697;50.750;-3.270;2023-08-06T12:43:42;1;1;
78408;PMS5003;67697;50.750;-3.270;2023-08-06T12:46:07;2;2;
78408;PMS5003;67697;50.750;-3.270;2023-08-06T12:48:33;2;2;
78408;PMS5003;67697;50.750;-3.270;2023-08-06T12:50:58;1;1;
78408;PMS5003;67697;50.750;-3.270;2023-08-06T12:53:24;1;1;
78408;PMS5003;67697;50.750;-3.270;2023-08-06T12:55:49;2;2;
78408;PMS5003;67697;50.750;-3.270;2023-08-06T12:58:15;4;4;
78408;PMS5003;67697;50.750;-3.270;2023-08-06T13:00:40;3;2;
78408;PMS5003;67697;50.750;-3.270;2023-08-06T13:03:06;2;2;
78408;PMS5003;67697;50.750;-3.270;2023-08-06T13:05:31;1;1;
78408;PMS5003;67697;50.750;-3.270;2023-08-06T13:07:57;1;1;
78408;PMS5003;67697;50.750;-3.270;2023-08-06T13:10:23;2;2;
78408;PMS5003;67697;50.750;-3.270;2023-08-06T13:12:48;0;0;
78408;PMS5003;67697;50.750;-3.270;2023-08-06T13:15:14;2;2;
78408;PMS5003;67697;50.750;-3.270;2023-08-06T13:17:39;2;2;
78408;PMS5003;67697;50.750;-3.270;2023-08-06T13:20:05;3;2;
78408;PMS5003;67697;50.750;-3.270;2023-08-06T13:22:30;0;0;
78408;PMS5003;67697;50.750;-3.270;2023-08-06T13:24:56;2;2;
78408;PMS5003;67697;50.750;-3.270;2023-08-06T13:27:21;2;2;
78408;PMS5003;67697;50.750;-3.270;2023-08-06T13:29:47;2;2;
78408;PMS5003;67697;50.750;-3.270;2023-08-06T13:32:17;1;0;
78408;PMS5003;67697;50.750;-3.270;2023-08-06T13:34:38;2;2;
78408;PMS5003;67697;50.750;-3.270;2023-08-06T13:37:03;2;2;
78408;PMS5003;67697;50.750;-3.270;2023-08-06T13:39:29;3;2;
78408;PMS5003;67697;50.750;-3.270;2023-08-06T13:41:54;2;1;
78408;PMS5003;67697;50.750;-3.270;2023-08-06T13:44:20;2;2;
78408;PMS5003;67697;50.750;-3.270;2023-08-06T13:46:45;3;1;
78408;PMS5003;67697;50.750;-3.270;2023-08-06T13:49:11;2;2;
78408;PMS5003;67697;50.750;-3.270;2023-08-06T13:51:36;1;1;
78408;PMS5003;67697;50.750;-3.270;2023-08-06T13:54:02;2;2;
78408;PMS5003;67697;50.750;-3.270;2023-08-06T13:56:27;1;1;
78408;PMS5003;67697;50.750;-3.270;2023-08-06T13:58:53;3;2;
78408;PMS5003;67697;50.750;-3.270;2023-08-06T14:01:18;0;0;
78408;PMS5003;67697;50.750;-3.270;2023-08-06T14:03:44;2;2;
78408;PMS5003;67697;50.750;-3.270;2023-08-06T14:06:09;2;2;
78408;PMS5003;67697;50.750;-3.270;2023-08-06T14:08:35;1;1;
78408;PMS5003;67697;50.750;-3.270;2023-08-06T14:11:00;3;2;
78408;PMS5003;67697;50.750;-3.270;2023-08-06T14:13:26;2;1;
78408;PMS5003;67697;50.750;-3.270;2023-08-06T14:15:51;1;1;
78408;PMS5003;67697;50.750;-3.270;2023-08-06T14:18:17;1;1;
78408;PMS5003;67697;50.750;-3.270;2023-08-06T14:20:43;2;2;
78408;PMS5003;67697;50.750;-3.270;2023-08-06T14:23:08;4;2;
78408;PMS5003;67697;50.750;-3.270;2023-08-06T14:25:33;0;0;
78408;PMS5003;67697;50.750;-3.270;2023-08-06T14:27:59;1;1;
78408;PMS5003;67697;50.750;-3.270;2023-08-06T14:30:24;2;2;
78408;PMS5003;67697;50.750;-3.270;2023-08-06T14:32:50;1;0;
78408;PMS5003;67697;50.750;-3.270;2023-08-06T14:35:15;1;1;
78408;PMS5003;67697;50.750;-3.270;2023-08-06T14:37:41;3;2;
78408;PMS5003;67697;50.750;-3.270;2023-08-06T14:40:06;2;2;
78408;PMS5003;67697;50.750;-3.270;2023-08-06T14:42:31;1;1;
78408;PMS5003;67697;50.750;-3.270;2023-08-06T14:44:57;1;1;
78408;PMS5003;67697;50.750;-3.270;2023-08-06T14:47:22;2;2;
78408;PMS5003;67697;50.750;-3.270;2023-08-06T14:49:48;2;0;
78408;PMS5003;67697;50.750;-3.270;2023-08-06T14:52:14;2;2;
78408;PMS5003;67697;50.750;-3.270;2023-08-06T14:54:39;2;2;
78408;PMS5003;67697;50.750;-3.270;2023-08-06T14:57:05;1;1;
78408;PMS5003;67697;50.750;-3.270;2023-08-06T14:59:30;4;1;
78408;PMS5003;67697;50.750;-3.270;2023-08-06T15:01:55;1;1;
78408;PMS5003;67697;50.750;-3.270;2023-08-06T15:04:21;3;2;
78408;PMS5003;67697;50.750;-3.270;2023-08-06T15:06:47;3;2;
78408;PMS5003;67697;50.750;-3.270;2023-08-06T15:09:12;1;1;
78408;PMS5003;67697;50.750;-3.270;2023-08-06T15:11:37;2;2;
78408;PMS5003;67697;50.750;-3.270;2023-08-06T15:14:03;3;2;
78408;PMS5003;67697;50.750;-3.270;2023-08-06T15:16:28;2;2;
78408;PMS5003;67697;50.750;-3.270;2023-08-06T15:18:54;2;2;
78408;PMS5003;67697;50.750;-3.270;2023-08-06T15:23:45;0;0;
78408;PMS5003;67697;50.750;-3.270;2023-08-06T15:26:10;3;3;
78408;PMS5003;67697;50.750;-3.270;2023-08-06T15:28:36;2;2;
78408;PMS5003;67697;50.750;-3.270;2023-08-06T15:31:01;3;2;
78408;PMS5003;67697;50.750;-3.270;2023-08-06T15:33:32;2;2;
78408;PMS5003;67697;50.750;-3.270;2023-08-06T15:35:52;2;2;
78408;PMS5003;67697;50.750;-3.270;2023-08-06T15:38:18;4;4;
78408;PMS5003;67697;50.750;-3.270;2023-08-06T15:40:43;2;2;
78408;PMS5003;67697;50.750;-3.270;2023-08-06T15:43:09;2;2;
78408;PMS5003;67697;50.750;-3.270;2023-08-06T15:45:34;1;1;
78408;PMS5003;67697;50.750;-3.270;2023-08-06T15:48:00;1;1;
78408;PMS5003;67697;50.750;-3.270;2023-08-06T15:50:25;6;2;
78408;PMS5003;67697;50.750;-3.270;2023-08-06T15:52:51;3;2;
78408;PMS5003;67697;50.750;-3.270;2023-08-06T15:55:16;1;1;
78408;PMS5003;67697;50.750;-3.270;2023-08-06T15:57:42;2;2;
78408;PMS5003;67697;50.750;-3.270;2023-08-06T16:00:08;1;1;
78408;PMS5003;67697;50.750;-3.270;2023-08-06T16:02:33;2;2;
78408;PMS5003;67697;50.750;-3.270;2023-08-06T16:04:59;1;1;
78408;PMS5003;67697;50.750;-3.270;2023-08-06T16:07:24;1;1;
78408;PMS5003;67697;50.750;-3.270;2023-08-06T16:09:50;3;2;
78408;PMS5003;67697;50.750;-3.270;2023-08-06T16:12:15;2;2;
78408;PMS5003;67697;50.750;-3.270;2023-08-06T16:14:40;1;1;
78408;PMS5003;67697;50.750;-3.270;2023-08-06T16:17:07;2;2;
78408;PMS5003;67697;50.750;-3.270;2023-08-06T16:19:31;2;2;
78408;PMS5003;67697;50.750;-3.270;2023-08-06T16:21:57;1;1;
78408;PMS5003;67697;50.750;-3.270;2023-08-06T16:24:22;1;1;
78408;PMS5003;67697;50.750;-3.270;2023-08-06T16:26:48;2;2;
78408;PMS5003;67697;50.750;-3.270;2023-08-06T16:29:14;1;1;